Willoughby, OH (44095)

9:14 AM EST on February 06, 2016 (GMT -0500)
Rt. 91 and Stevens Blvd | | Change Station
CLOSE
Current Station
Personal Weather Station
Location: Eastlake, OH
Elevation: 623 ft
Nearby Weather Stations

Elev 623 ft 41.65 °N, 81.44 °W | Updated 2 minutes ago

Overcast
Overcast
32.0 °F
Feels Like 32 °F
N
2.7
Wind Variable Wind from South

Today
High -- | Low -- °F
--% Chance of Precip.
Yesterday
High -- | Low -- °F
Precip. -- in
Pressure 30.31 in
Visibility 6.0 miles
Clouds Scattered Clouds 900 ft
Mostly Cloudy 1600 ft
Mostly Cloudy 20000 ft
Windchill 32 °F
Dew Point 27 °F
Humidity 82%
Rainfall 0.00 in
Snow Depth Not available.
7:32 AM 5:47 PM
Waning Crescent, 5% visible
METAR KCGF 061345Z 26008KT 6SM HZ SCT009 BKN016 BKN200 M01/M04 A3031
Pressure 30.31 in
Visibility 6.0 miles
Clouds Scattered Clouds 900 ft
Mostly Cloudy 1600 ft
Mostly Cloudy 20000 ft
Windchill 32 °F
Dew Point 27 °F
Humidity 82%
Rainfall 0.00 in
Snow Depth Not available.
7:32 AM 5:47 PM
Waning Crescent, 5% visible
METAR KCGF 061345Z 26008KT 6SM HZ SCT009 BKN016 BKN200 M01/M04 A3031

10-Day Weather Forecast

Almanac

Astronomy

Feb. 06, 2016 Rise Set
Actual Time
Civil Twilight
Nautical Twilight
Astronomical Twilight
Moon
Length of Visible Light
Length of Day
Tomorrow will be .
, % of the Moon is Illuminated

Today's Extremes

State Highs State Lows

Community

WunderPhotos

Upload Photos

1,890,976 photos uploaded!

WunderBlog® & News

Nearby

Air Quality

  Air Quality AQ Index Pollutant
Not available.

Snow Depth

Station Depth Elevation

Earthquake Activity

City Distance Mag. Time & Date
Minimum magnitude displayed is 2.5.

Coastal Water Temperatures

Place Temperature

Stations

Nearby Weather Stations

Station Location Temp. Windchill Dew Point Humidity Wind Precip. Elev Updated Type
                   

Watches & Warnings

There are currently no watches in effect.